createdAt,value
2022-10-23T00:00:11.810Z,87.17
2022-10-23T00:00:44.053Z,86.49
2022-10-23T00:01:39.875Z,86.69
2022-10-23T00:02:11.731Z,86.78
2022-10-23T00:02:44.033Z,86.97
2022-10-23T00:03:16.164Z,87.06
2022-10-23T00:03:50.517Z,86.41
2022-10-23T00:04:25.375Z,86.52
2022-10-23T00:04:57.194Z,86.25
2022-10-23T00:05:29.458Z,87.21
2022-10-23T00:06:04.613Z,87.92
2022-10-23T00:06:36.836Z,87.71
2022-10-23T00:07:08.674Z,87.21
2022-10-23T00:07:40.639Z,86.90
2022-10-23T00:08:12.509Z,86.46
2022-10-23T00:08:46.604Z,86.18
2022-10-23T00:09:21.443Z,86.20
2022-10-23T00:09:53.433Z,86.49
2022-10-23T00:10:27.739Z,86.50
2022-10-23T00:10:59.601Z,86.76
2022-10-23T00:11:32.575Z,86.49
2022-10-23T00:12:04.604Z,86.41
2022-10-23T00:12:36.589Z,85.69
2022-10-23T00:13:09.057Z,86.05
2022-10-23T00:13:41.423Z,86.09
2022-10-23T00:14:14.689Z,87.09
2022-10-23T00:14:46.537Z,87.03
2022-10-23T00:15:21.110Z,87.41
2022-10-23T00:16:30.518Z,87.56
2022-10-23T00:17:02.684Z,87.43
2022-10-23T00:17:35.137Z,87.51
2022-10-23T00:18:06.964Z,87.22
2022-10-23T00:18:39.121Z,86.60
2022-10-23T00:19:11.253Z,86.33
2022-10-23T00:19:43.099Z,86.28
2022-10-23T00:20:16.516Z,87.77
2022-10-23T00:20:48.355Z,87.61
2022-10-23T00:21:20.993Z,87.92
2022-10-23T00:21:52.885Z,87.56
2022-10-23T00:22:25.040Z,87.08
2022-10-23T00:22:56.864Z,87.47
2022-10-23T00:23:28.739Z,87.69
2022-10-23T00:24:00.657Z,87.75
2022-10-23T00:24:32.532Z,87.74
2022-10-23T00:25:09.009Z,87.81
2022-10-23T00:25:40.822Z,87.87
2022-10-23T00:26:16.385Z,87.60
2022-10-23T00:26:50.613Z,87.42
2022-10-23T00:27:22.447Z,86.65
2022-10-23T00:27:54.586Z,85.94
2022-10-23T00:28:26.619Z,86.27
2022-10-23T00:28:58.514Z,86.42
2022-10-23T00:29:30.465Z,86.20
2022-10-23T00:30:04.700Z,85.75
2022-10-23T00:30:36.531Z,85.78
2022-10-23T00:31:08.381Z,85.81
2022-10-23T00:31:40.367Z,86.08
2022-10-23T00:32:12.210Z,86.41
2022-10-23T00:32:44.037Z,86.19
2022-10-23T00:33:16.280Z,86.55
2022-10-23T00:33:48.336Z,86.82
2022-10-23T00:34:20.188Z,86.59
2022-10-23T00:34:52.080Z,86.35
2022-10-23T00:35:24.989Z,86.54
2022-10-23T00:35:57.168Z,87.13
2022-10-23T00:36:29.038Z,86.99
2022-10-23T00:37:00.919Z,86.69
2022-10-23T00:37:33.458Z,87.04
2022-10-23T00:38:05.365Z,86.95
2022-10-23T00:38:38.059Z,87.11
2022-10-23T00:39:09.941Z,86.95
2022-10-23T00:39:41.875Z,86.67
2022-10-23T00:40:13.745Z,86.47
2022-10-23T00:40:47.173Z,86.23
2022-10-23T00:41:28.743Z,85.79
2022-10-23T00:42:00.787Z,85.28
2022-10-23T00:42:32.655Z,84.86
2022-10-23T00:43:04.776Z,84.63
2022-10-23T00:44:00.297Z,84.44
2022-10-23T00:44:32.373Z,84.97
2022-10-23T00:45:34.390Z,85.31
2022-10-23T00:46:06.239Z,85.82
2022-10-23T00:46:40.621Z,85.80
2022-10-23T00:47:13.990Z,85.67
2022-10-23T00:47:45.885Z,85.49
2022-10-23T00:48:18.534Z,85.19
2022-10-23T00:48:50.489Z,84.79
2022-10-23T00:49:23.194Z,84.97
2022-10-23T00:49:55.460Z,84.92
2022-10-23T00:50:29.447Z,84.86
2022-10-23T00:51:02.546Z,84.87
2022-10-23T00:51:40.315Z,84.98
2022-10-23T00:52:13.572Z,84.89
2022-10-23T00:52:49.309Z,84.35
2022-10-23T00:53:22.189Z,84.47
2022-10-23T00:54:12.927Z,84.70
2022-10-23T00:54:50.233Z,84.67
2022-10-23T00:55:24.516Z,84.58
2022-10-23T00:55:57.699Z,84.64
2022-10-23T00:56:31.556Z,84.32
2022-10-23T00:57:05.648Z,84.25
2022-10-23T00:57:42.238Z,85.29
2022-10-23T00:58:15.777Z,85.66
2022-10-23T00:58:47.675Z,85.93
2022-10-23T00:59:19.538Z,85.77
2022-10-23T00:59:51.503Z,85.35
2022-10-23T01:00:27.998Z,85.12
2022-10-23T01:00:59.901Z,84.54
2022-10-23T01:01:32.134Z,84.39
2022-10-23T01:02:05.120Z,84.59
2022-10-23T01:02:37.118Z,84.82
2022-10-23T01:03:09.257Z,84.87
2022-10-23T01:03:41.414Z,84.69
2022-10-23T01:04:13.343Z,84.38
2022-10-23T01:04:46.464Z,84.34
2022-10-23T01:05:22.556Z,84.43
2022-10-23T01:06:12.510Z,84.89
2022-10-23T01:07:09.507Z,86.26
2022-10-23T01:07:45.716Z,85.43
2022-10-23T01:08:31.039Z,85.24
2022-10-23T01:09:08.772Z,85.18
2022-10-23T01:09:42.072Z,84.52
2022-10-23T01:10:53.154Z,84.56
2022-10-23T01:11:34.612Z,84.89
2022-10-23T01:12:14.134Z,83.80
2022-10-23T01:12:55.281Z,83.71
2022-10-23T01:13:39.033Z,84.10
2022-10-23T01:14:17.077Z,84.39
2022-10-23T01:15:13.771Z,84.97
2022-10-23T01:16:13.953Z,85.01
2022-10-23T01:17:17.691Z,84.74
2022-10-23T01:17:58.688Z,85.36
2022-10-23T01:18:41.889Z,85.65
2022-10-23T01:19:51.935Z,87.00
2022-10-23T01:20:38.783Z,87.93
2022-10-23T01:21:32.783Z,86.82
2022-10-23T01:22:20.241Z,86.79
2022-10-23T01:23:10.064Z,86.08
2022-10-23T01:23:49.428Z,85.24
2022-10-23T01:24:39.851Z,85.26
2022-10-23T01:25:44.888Z,85.05
2022-10-23T01:26:37.671Z,85.11
2022-10-23T01:27:21.997Z,84.69
2022-10-23T01:28:01.746Z,84.54
2022-10-23T01:29:01.490Z,84.50
2022-10-23T01:29:46.180Z,84.05
2022-10-23T01:30:18.255Z,84.04
2022-10-23T01:30:50.786Z,84.50
2022-10-23T01:31:30.789Z,84.45
2022-10-23T01:32:27.718Z,84.12
2022-10-23T01:33:36.107Z,83.99
2022-10-23T01:34:22.511Z,83.49
2022-10-23T01:35:13.999Z,84.01
2022-10-23T01:36:14.607Z,83.98
2022-10-23T01:36:50.805Z,84.36
2022-10-23T01:37:35.363Z,85.03
2022-10-23T01:38:28.120Z,85.05
2022-10-23T01:39:09.686Z,85.78
2022-10-23T01:39:47.356Z,86.35
2022-10-23T01:40:24.658Z,86.65
2022-10-23T01:41:04.259Z,87.20
2022-10-23T01:41:44.207Z,87.11
2022-10-23T01:42:21.707Z,87.18
2022-10-23T01:42:58.330Z,87.12
2022-10-23T01:43:52.129Z,87.73
2022-10-23T01:44:43.228Z,87.83
2022-10-23T01:45:34.282Z,87.24
2022-10-23T01:46:10.487Z,86.38
2022-10-23T01:46:45.209Z,86.21
2022-10-23T01:47:58.129Z,86.06
2022-10-23T01:48:34.155Z,86.01
2022-10-23T01:49:10.118Z,85.85
2022-10-23T01:49:44.579Z,85.64
2022-10-23T01:50:18.866Z,85.76
2022-10-23T01:50:55.104Z,86.04
2022-10-23T01:51:31.408Z,86.12
2022-10-23T01:52:09.336Z,85.46
2022-10-23T01:52:42.023Z,85.22
2022-10-23T01:53:13.949Z,85.50
2022-10-23T01:53:49.482Z,85.85
2022-10-23T01:54:26.861Z,86.25
2022-10-23T01:55:01.621Z,86.15
2022-10-23T01:55:35.032Z,86.00
2022-10-23T01:56:15.379Z,85.87
2022-10-23T01:56:50.509Z,85.71
2022-10-23T01:57:29.848Z,85.49
2022-10-23T01:58:02.947Z,85.18
2022-10-23T01:58:45.519Z,85.08
2022-10-23T01:59:23.658Z,85.76
2022-10-23T02:00:01.566Z,86.55
2022-10-23T02:00:36.119Z,87.14
2022-10-23T02:01:11.484Z,87.15
2022-10-23T02:01:56.326Z,86.99
2022-10-23T02:02:30.446Z,86.84
2022-10-23T02:03:04.622Z,86.80
2022-10-23T02:03:39.521Z,86.63
2022-10-23T02:04:15.757Z,86.42
2022-10-23T02:05:24.739Z,87.00
2022-10-23T02:05:56.687Z,87.27
2022-10-23T02:06:29.110Z,86.21
2022-10-23T02:07:01.155Z,85.61
2022-10-23T02:07:34.030Z,85.57
2022-10-23T02:08:06.949Z,85.74
2022-10-23T02:08:39.081Z,86.02
2022-10-23T02:09:11.292Z,85.96
2022-10-23T02:09:43.817Z,85.61
2022-10-23T02:10:16.192Z,85.08
2022-10-23T02:10:51.360Z,85.65
2022-10-23T02:11:23.487Z,85.97
2022-10-23T02:12:02.131Z,85.96
2022-10-23T02:12:38.391Z,85.52
2022-10-23T02:13:39.091Z,85.27
2022-10-23T02:14:33.895Z,85.26
2022-10-23T02:15:43.256Z,85.08
2022-10-23T02:16:29.896Z,85.26
2022-10-23T02:17:15.995Z,85.02
2022-10-23T02:18:14.921Z,84.12
2022-10-23T02:18:51.959Z,83.55
2022-10-23T02:19:33.499Z,83.77
2022-10-23T02:20:18.247Z,83.47
2022-10-23T02:21:05.016Z,83.74
2022-10-23T02:21:50.211Z,83.81
2022-10-23T02:22:25.575Z,84.55
2022-10-23T02:23:05.367Z,84.86
2022-10-23T02:23:53.694Z,84.41
2022-10-23T02:24:44.028Z,84.27
2022-10-23T02:25:27.858Z,83.96
2022-10-23T02:26:27.744Z,84.17
2022-10-23T02:27:04.099Z,84.40
2022-10-23T02:27:40.756Z,84.36
2022-10-23T02:28:17.991Z,84.72
2022-10-23T02:28:54.292Z,84.75
2022-10-23T02:29:33.624Z,84.10
2022-10-23T02:30:09.525Z,83.70
2022-10-23T02:30:45.154Z,83.66
2022-10-23T02:31:20.922Z,83.52
2022-10-23T02:31:52.965Z,84.00
2022-10-23T02:32:27.637Z,83.95
2022-10-23T02:33:01.111Z,83.71
2022-10-23T02:33:34.708Z,83.47
2022-10-23T02:34:06.659Z,83.19
2022-10-23T02:34:38.654Z,83.01
2022-10-23T02:35:11.203Z,83.32
2022-10-23T02:35:43.771Z,83.77
2022-10-23T02:36:20.152Z,84.00
2022-10-23T02:36:52.289Z,83.96
2022-10-23T02:37:25.579Z,83.64
2022-10-23T02:38:00.739Z,83.99
2022-10-23T02:38:33.190Z,84.09
2022-10-23T02:39:05.784Z,83.83
2022-10-23T02:39:37.848Z,83.59
2022-10-23T02:40:11.221Z,83.34
2022-10-23T02:40:46.115Z,83.43
2022-10-23T02:41:39.189Z,83.17
2022-10-23T02:42:38.565Z,82.98
2022-10-23T02:43:36.804Z,83.40
2022-10-23T02:44:30.141Z,83.14
2022-10-23T02:45:10.626Z,83.29
2022-10-23T02:46:02.648Z,83.88
2022-10-23T02:46:56.173Z,83.40
2022-10-23T02:47:48.341Z,83.68
2022-10-23T02:48:33.950Z,84.07
2022-10-23T02:49:24.149Z,84.20
2022-10-23T02:50:27.888Z,84.23
2022-10-23T02:51:10.539Z,84.78
2022-10-23T02:52:01.571Z,84.78
2022-10-23T02:52:38.803Z,83.64
2022-10-23T02:53:21.089Z,83.46
2022-10-23T02:54:02.146Z,83.44
2022-10-23T02:54:54.895Z,83.95
2022-10-23T02:56:03.685Z,83.74
2022-10-23T02:57:23.946Z,84.60
2022-10-23T02:58:05.616Z,85.25
2022-10-23T02:58:48.108Z,84.44
2022-10-23T02:59:28.484Z,84.28
2022-10-23T03:00:08.890Z,84.26
2022-10-23T03:00:46.467Z,83.98
2022-10-23T03:01:23.522Z,83.46
2022-10-23T03:02:04.161Z,83.61
2022-10-23T03:02:41.515Z,84.04
2022-10-23T03:03:19.297Z,84.42
2022-10-23T03:04:01.064Z,84.45
2022-10-23T03:04:33.615Z,84.64
2022-10-23T03:05:10.785Z,84.50
2022-10-23T03:05:44.991Z,83.97
2022-10-23T03:06:19.477Z,84.30
2022-10-23T03:06:52.049Z,84.47
2022-10-23T03:07:26.218Z,84.60
2022-10-23T03:08:05.535Z,84.09
2022-10-23T03:08:43.539Z,84.11
2022-10-23T03:09:15.403Z,83.63
2022-10-23T03:09:47.224Z,83.67
2022-10-23T03:10:19.274Z,83.63
2022-10-23T03:10:51.493Z,84.03
2022-10-23T03:11:23.982Z,84.11
2022-10-23T03:11:55.858Z,83.65
2022-10-23T03:12:28.665Z,83.72
2022-10-23T03:13:00.610Z,84.03
2022-10-23T03:13:34.682Z,84.32
2022-10-23T03:14:07.340Z,84.21
2022-10-23T03:14:39.215Z,84.53
2022-10-23T03:15:12.531Z,84.66
2022-10-23T03:15:44.797Z,84.81
2022-10-23T03:16:16.853Z,85.14
2022-10-23T03:16:55.283Z,85.39
2022-10-23T03:17:27.408Z,85.41
2022-10-23T03:17:59.747Z,85.37
2022-10-23T03:18:31.566Z,84.81
2022-10-23T03:19:03.896Z,84.55
2022-10-23T03:19:36.077Z,84.60
2022-10-23T03:20:10.427Z,84.37
2022-10-23T03:20:42.270Z,84.14
2022-10-23T03:21:15.414Z,83.87
2022-10-23T03:21:47.349Z,83.51
2022-10-23T03:22:19.412Z,83.82
2022-10-23T03:22:52.367Z,84.14
2022-10-23T03:23:24.209Z,84.35
2022-10-23T03:23:56.058Z,84.30
2022-10-23T03:24:28.620Z,84.02
2022-10-23T03:25:01.466Z,84.06
2022-10-23T03:25:34.503Z,83.96
2022-10-23T03:26:06.964Z,83.43
2022-10-23T03:26:39.194Z,83.20
2022-10-23T03:27:13.842Z,82.89
2022-10-23T03:27:45.740Z,83.16
2022-10-23T03:28:19.773Z,83.13
2022-10-23T03:28:51.602Z,83.02
2022-10-23T03:29:24.369Z,83.24
2022-10-23T03:29:56.288Z,82.75
2022-10-23T03:30:28.446Z,82.92
2022-10-23T03:31:02.194Z,83.00
2022-10-23T03:31:34.131Z,83.65
2022-10-23T03:32:06.393Z,84.02
2022-10-23T03:32:38.270Z,83.91
2022-10-23T03:33:10.728Z,84.21
2022-10-23T03:33:42.703Z,84.48
2022-10-23T03:34:15.098Z,84.92
2022-10-23T03:34:47.289Z,84.83
2022-10-23T03:35:19.132Z,84.65
2022-10-23T03:35:51.341Z,84.38
2022-10-23T03:36:23.170Z,83.95
2022-10-23T03:36:55.176Z,84.40
2022-10-23T03:37:27.056Z,84.58
2022-10-23T03:37:58.924Z,84.73
2022-10-23T03:38:30.839Z,84.36
2022-10-23T03:39:04.112Z,84.30
2022-10-23T03:39:36.110Z,84.44
2022-10-23T03:40:08.761Z,84.68
2022-10-23T03:40:40.571Z,84.66
2022-10-23T03:41:12.798Z,84.41
2022-10-23T03:41:44.738Z,84.03
2022-10-23T03:42:17.602Z,84.23
2022-10-23T03:42:49.549Z,84.71
2022-10-23T03:43:23.251Z,84.86
2022-10-23T03:43:55.199Z,85.30
2022-10-23T03:44:27.273Z,85.48
2022-10-23T03:44:59.100Z,85.86
2022-10-23T03:45:32.558Z,86.06
2022-10-23T03:46:09.197Z,85.97
2022-10-23T03:46:41.342Z,85.92
2022-10-23T03:47:13.327Z,85.67
2022-10-23T03:47:46.668Z,85.38
2022-10-23T03:48:18.751Z,84.94
2022-10-23T03:48:50.639Z,84.98
2022-10-23T03:49:23.062Z,85.35
2022-10-23T03:49:54.938Z,85.34
2022-10-23T03:50:28.361Z,85.14
2022-10-23T03:51:00.176Z,85.01
2022-10-23T03:51:32.551Z,84.45
2022-10-23T03:52:05.360Z,84.58
2022-10-23T03:52:37.607Z,84.56
2022-10-23T03:53:09.539Z,84.67
2022-10-23T03:53:41.485Z,84.83
2022-10-23T03:54:13.318Z,85.00
2022-10-23T03:54:45.163Z,84.70
2022-10-23T03:55:17.187Z,84.47
2022-10-23T03:55:48.972Z,84.27
2022-10-23T03:56:21.964Z,83.97
2022-10-23T03:56:57.379Z,84.11
2022-10-23T03:57:30.767Z,85.24
2022-10-23T03:58:03.167Z,85.58
2022-10-23T03:58:35.130Z,85.30
2022-10-23T03:59:06.990Z,85.01
2022-10-23T03:59:38.843Z,84.26
2022-10-23T04:00:11.348Z,84.17
2022-10-23T04:00:48.205Z,84.12
2022-10-23T04:01:20.566Z,84.44
2022-10-23T04:01:52.620Z,84.74
2022-10-23T04:02:24.775Z,84.94
2022-10-23T04:02:56.997Z,84.96
2022-10-23T04:03:28.968Z,84.57
2022-10-23T04:04:01.019Z,84.45
2022-10-23T04:04:33.446Z,84.51
2022-10-23T04:05:06.057Z,84.53
2022-10-23T04:05:39.131Z,84.65
2022-10-23T04:06:11.139Z,84.80
2022-10-23T04:06:43.570Z,84.57
2022-10-23T04:07:15.669Z,84.38
2022-10-23T04:07:47.594Z,84.43
2022-10-23T04:08:20.325Z,84.11
2022-10-23T04:08:53.043Z,83.41
2022-10-23T04:09:24.969Z,83.43
2022-10-23T04:09:56.820Z,83.15
2022-10-23T04:10:28.969Z,83.51
2022-10-23T04:11:00.784Z,84.16
2022-10-23T04:11:33.582Z,84.04
2022-10-23T04:12:06.085Z,83.87
2022-10-23T04:12:38.013Z,84.05
2022-10-23T04:13:11.019Z,84.47
2022-10-23T04:13:42.903Z,84.74
2022-10-23T04:14:14.926Z,85.12
2022-10-23T04:14:46.773Z,85.28
2022-10-23T04:15:18.722Z,85.09
2022-10-23T04:15:52.388Z,85.14
2022-10-23T04:16:25.090Z,86.18
2022-10-23T04:16:56.976Z,86.24
2022-10-23T04:17:29.183Z,86.67
2022-10-23T04:18:01.071Z,86.67
2022-10-23T04:18:32.920Z,86.66
2022-10-23T04:19:04.778Z,86.64
2022-10-23T04:19:36.651Z,86.54
2022-10-23T04:20:09.540Z,86.19
2022-10-23T04:20:41.390Z,86.36
2022-10-23T04:21:13.251Z,86.65
2022-10-23T04:21:45.200Z,86.70
2022-10-23T04:22:17.174Z,86.50
2022-10-23T04:22:49.812Z,86.28
2022-10-23T04:23:21.701Z,86.09
2022-10-23T04:23:53.899Z,86.64
2022-10-23T04:24:28.040Z,86.76
2022-10-23T04:24:59.854Z,87.10
2022-10-23T04:25:32.023Z,87.10
2022-10-23T04:26:04.292Z,86.68
2022-10-23T04:26:37.076Z,86.43
2022-10-23T04:27:09.034Z,86.77
2022-10-23T04:27:41.565Z,86.64
2022-10-23T04:28:14.018Z,86.56
2022-10-23T04:28:46.107Z,86.48
2022-10-23T04:29:18.789Z,86.15
2022-10-23T04:29:52.357Z,85.70
2022-10-23T04:30:26.297Z,85.47
2022-10-23T04:30:58.223Z,85.70
2022-10-23T04:31:30.614Z,85.52
2022-10-23T04:32:02.453Z,85.92
2022-10-23T04:32:34.435Z,86.05
2022-10-23T04:33:06.284Z,86.14
2022-10-23T04:33:39.330Z,86.02
2022-10-23T04:34:11.411Z,86.40
2022-10-23T04:34:43.288Z,86.40
2022-10-23T04:35:15.179Z,85.87
2022-10-23T04:35:47.119Z,86.03
2022-10-23T04:36:19.054Z,86.12
2022-10-23T04:36:50.875Z,86.41
2022-10-23T04:37:22.827Z,86.21
2022-10-23T04:37:54.701Z,85.96
2022-10-23T04:38:28.051Z,85.72
2022-10-23T04:39:00.397Z,86.00
2022-10-23T04:39:32.291Z,86.35
2022-10-23T04:40:04.430Z,86.08
2022-10-23T04:40:40.012Z,86.15
2022-10-23T04:41:11.904Z,86.54
2022-10-23T04:41:43.857Z,86.55
2022-10-23T04:42:15.813Z,86.46
2022-10-23T04:42:47.693Z,87.00
2022-10-23T04:43:19.592Z,87.03
2022-10-23T04:43:51.577Z,86.67
2022-10-23T04:44:23.886Z,86.46
2022-10-23T04:44:55.822Z,86.16
2022-10-23T04:45:28.053Z,86.02
2022-10-23T04:46:00.459Z,85.93
2022-10-23T04:46:32.707Z,86.18
2022-10-23T04:47:04.646Z,85.74
2022-10-23T04:47:37.426Z,85.74
2022-10-23T04:48:09.710Z,85.31
2022-10-23T04:48:43.195Z,85.20
2022-10-23T04:49:16.236Z,85.27
2022-10-23T04:49:49.382Z,85.07
2022-10-23T04:50:22.960Z,84.89
2022-10-23T04:51:10.880Z,85.03
2022-10-23T04:51:43.862Z,84.47
2022-10-23T04:52:16.743Z,83.73
2022-10-23T04:52:49.080Z,83.74
2022-10-23T04:53:26.533Z,83.88
2022-10-23T04:53:59.498Z,83.99
2022-10-23T04:54:39.288Z,83.89
2022-10-23T04:55:12.246Z,83.85
2022-10-23T04:55:55.690Z,84.14
2022-10-23T04:56:27.905Z,83.83
2022-10-23T04:56:59.970Z,83.72
2022-10-23T04:57:32.343Z,83.45
2022-10-23T04:58:04.477Z,83.38
2022-10-23T04:58:37.098Z,83.23
2022-10-23T04:59:09.137Z,83.29
2022-10-23T04:59:41.637Z,83.61
2022-10-23T05:00:16.271Z,84.01
2022-10-23T05:00:49.344Z,84.13
2022-10-23T05:01:25.622Z,84.24
2022-10-23T05:01:57.592Z,83.59
2022-10-23T05:02:29.510Z,83.40
2022-10-23T05:03:01.622Z,83.47
2022-10-23T05:03:35.294Z,83.45
2022-10-23T05:04:08.433Z,83.45
2022-10-23T05:04:43.549Z,83.35
2022-10-23T05:05:18.833Z,83.50
2022-10-23T05:05:54.826Z,83.44
2022-10-23T05:06:26.975Z,83.14
2022-10-23T05:06:59.090Z,82.96
2022-10-23T05:07:31.126Z,82.95
2022-10-23T05:08:03.028Z,83.19
2022-10-23T05:08:35.919Z,83.37
2022-10-23T05:09:08.018Z,83.08
2022-10-23T05:09:40.060Z,82.74
2022-10-23T05:10:12.007Z,82.82
2022-10-23T05:10:44.418Z,83.41
2022-10-23T05:11:16.353Z,83.46
2022-10-23T05:11:48.717Z,83.67
2022-10-23T05:12:20.835Z,83.92
2022-10-23T05:12:53.023Z,85.46
2022-10-23T05:13:24.879Z,84.35
2022-10-23T05:13:56.744Z,83.98
2022-10-23T05:14:28.655Z,83.50
2022-10-23T05:15:01.273Z,83.22
2022-10-23T05:15:33.213Z,83.13
2022-10-23T05:16:05.720Z,83.08
2022-10-23T05:16:46.950Z,83.09
2022-10-23T05:17:26.306Z,83.19
2022-10-23T05:18:17.006Z,83.08
2022-10-23T05:18:49.056Z,82.74
2022-10-23T05:19:24.460Z,82.57
2022-10-23T05:20:00.974Z,83.07
2022-10-23T05:20:36.466Z,83.00
2022-10-23T05:21:25.939Z,83.03
2022-10-23T05:21:58.260Z,84.08
2022-10-23T05:22:33.919Z,84.02
2022-10-23T05:23:11.425Z,83.93
2022-10-23T05:23:44.585Z,83.79
2022-10-23T05:24:18.151Z,86.35
2022-10-23T05:24:57.711Z,85.16
2022-10-23T05:25:30.741Z,85.25
2022-10-23T05:26:04.211Z,85.76
2022-10-23T05:26:36.499Z,85.26
2022-10-23T05:27:08.883Z,85.20
2022-10-23T05:27:43.024Z,84.94
2022-10-23T05:28:15.546Z,85.01
2022-10-23T05:28:47.441Z,84.57
2022-10-23T05:29:20.807Z,84.55
2022-10-23T05:29:52.868Z,84.63
2022-10-23T05:30:25.197Z,84.49
2022-10-23T05:31:00.090Z,84.38
2022-10-23T05:31:34.717Z,84.28
2022-10-23T05:32:12.126Z,83.90
2022-10-23T05:32:44.631Z,83.82
2022-10-23T05:33:17.096Z,83.59
2022-10-23T05:33:49.306Z,84.39
2022-10-23T05:34:25.520Z,83.90
2022-10-23T05:34:58.345Z,84.19
2022-10-23T05:35:31.361Z,84.23
2022-10-23T05:36:03.586Z,84.30
2022-10-23T05:36:37.144Z,84.11
2022-10-23T05:37:11.929Z,83.73
2022-10-23T05:37:46.506Z,84.10
2022-10-23T05:38:19.156Z,83.65
2022-10-23T05:38:51.216Z,83.32
2022-10-23T05:39:23.550Z,83.44
2022-10-23T05:39:58.005Z,83.75
2022-10-23T05:40:29.993Z,83.70
2022-10-23T05:41:03.195Z,83.74
2022-10-23T05:41:35.151Z,82.83
2022-10-23T05:42:07.301Z,82.45
2022-10-23T05:42:41.554Z,82.61
2022-10-23T05:43:15.171Z,82.63
2022-10-23T05:43:50.136Z,83.04
2022-10-23T05:44:22.228Z,83.15
2022-10-23T05:44:55.017Z,82.95
2022-10-23T05:45:26.945Z,82.81
2022-10-23T05:46:07.363Z,82.75
2022-10-23T05:46:42.969Z,83.06
2022-10-23T05:47:15.282Z,83.24
2022-10-23T05:47:49.150Z,83.25
2022-10-23T05:48:33.644Z,83.33
2022-10-23T05:49:06.566Z,83.01
2022-10-23T05:49:39.105Z,83.08
2022-10-23T05:50:11.923Z,83.15
2022-10-23T05:50:44.000Z,83.31
2022-10-23T05:51:22.508Z,83.30
2022-10-23T05:51:55.115Z,83.37
2022-10-23T05:52:27.203Z,83.20
2022-10-23T05:53:00.519Z,82.83
2022-10-23T05:53:33.147Z,82.66
2022-10-23T05:54:08.397Z,82.62
2022-10-23T05:54:40.397Z,83.10
2022-10-23T05:55:16.499Z,83.11
2022-10-23T05:55:49.196Z,82.72
2022-10-23T05:56:21.176Z,82.46
2022-10-23T05:56:55.682Z,82.20
2022-10-23T05:57:27.811Z,81.80
2022-10-23T05:58:04.579Z,81.50
2022-10-23T05:58:39.505Z,81.43
2022-10-23T05:59:11.797Z,81.47
2022-10-23T05:59:43.950Z,81.73
2022-10-23T06:00:16.626Z,81.43
2022-10-23T06:00:57.697Z,80.67
2022-10-23T06:01:37.436Z,79.25
2022-10-23T06:02:09.865Z,79.08
2022-10-23T06:02:46.958Z,79.06
2022-10-23T06:03:19.660Z,79.66
2022-10-23T06:03:52.338Z,79.65
2022-10-23T06:04:25.414Z,79.52
2022-10-23T06:04:58.217Z,79.01
2022-10-23T06:05:31.439Z,78.50
2022-10-23T06:06:06.317Z,77.53
2022-10-23T06:06:38.675Z,76.40
2022-10-23T06:07:10.567Z,75.73
2022-10-23T06:07:42.869Z,75.17
2022-10-23T06:08:15.007Z,74.61
2022-10-23T06:08:47.507Z,73.71
2022-10-23T06:09:19.501Z,73.20
2022-10-23T06:09:52.956Z,73.56
2022-10-23T06:10:25.034Z,73.90
2022-10-23T06:10:57.329Z,73.50
2022-10-23T06:11:29.980Z,73.44
2022-10-23T06:12:02.846Z,73.93
2022-10-23T06:12:35.888Z,74.17
2022-10-23T06:13:08.057Z,73.88
2022-10-23T06:13:43.018Z,74.10
2022-10-23T06:14:15.216Z,74.66
2022-10-23T06:14:48.351Z,74.79
2022-10-23T06:15:20.370Z,75.22
2022-10-23T06:15:53.364Z,75.86
2022-10-23T06:16:26.854Z,75.92
2022-10-23T06:16:59.102Z,76.01
2022-10-23T06:17:31.787Z,75.88
2022-10-23T06:18:04.975Z,75.90
2022-10-23T06:18:37.754Z,75.72
2022-10-23T06:19:12.173Z,76.26
2022-10-23T06:19:46.021Z,76.58
2022-10-23T06:20:18.651Z,77.07
2022-10-23T06:20:53.674Z,77.69
2022-10-23T06:21:26.296Z,77.88
2022-10-23T06:21:58.507Z,77.70
2022-10-23T06:22:30.870Z,77.66
2022-10-23T06:23:08.047Z,77.44
2022-10-23T06:23:43.008Z,77.48
2022-10-23T06:24:17.746Z,77.86
2022-10-23T06:24:49.904Z,79.42
2022-10-23T06:25:23.710Z,80.32
2022-10-23T06:25:56.896Z,79.97
2022-10-23T06:26:29.785Z,79.42
2022-10-23T06:27:02.621Z,79.47
2022-10-23T06:27:37.752Z,79.39
2022-10-23T06:28:10.285Z,80.04
2022-10-23T06:28:42.712Z,80.70
2022-10-23T06:29:14.580Z,81.15
2022-10-23T06:29:47.191Z,81.37
2022-10-23T06:30:19.218Z,81.13
2022-10-23T06:30:51.396Z,81.80
2022-10-23T06:31:27.857Z,82.07
2022-10-23T06:32:00.744Z,82.25
2022-10-23T06:32:33.099Z,82.38
2022-10-23T06:33:06.627Z,82.91
2022-10-23T06:33:38.827Z,82.79
2022-10-23T06:34:11.859Z,82.65
2022-10-23T06:34:43.896Z,83.23
2022-10-23T06:35:15.861Z,83.48
2022-10-23T06:35:48.239Z,83.07
2022-10-23T06:36:20.159Z,82.95
2022-10-23T06:36:52.297Z,82.61
2022-10-23T06:37:26.316Z,82.55
2022-10-23T06:37:58.898Z,82.56
2022-10-23T06:38:37.389Z,82.75
2022-10-23T06:39:10.239Z,82.98
2022-10-23T06:39:45.450Z,83.36
2022-10-23T06:40:17.744Z,84.30
2022-10-23T06:40:57.701Z,85.03
2022-10-23T06:41:29.879Z,85.14
2022-10-23T06:42:01.720Z,85.01
2022-10-23T06:42:36.975Z,85.02
2022-10-23T06:43:12.113Z,84.65
2022-10-23T06:43:48.681Z,84.88
2022-10-23T06:44:20.964Z,84.98
2022-10-23T06:44:53.115Z,84.89
2022-10-23T06:45:30.023Z,84.98
2022-10-23T06:46:04.126Z,85.07
2022-10-23T06:46:39.049Z,85.23
2022-10-23T06:47:14.436Z,86.16
2022-10-23T06:47:52.921Z,85.92
2022-10-23T06:48:26.676Z,85.70
2022-10-23T06:48:59.816Z,85.79
2022-10-23T06:49:31.943Z,85.83
2022-10-23T06:50:05.113Z,85.75
2022-10-23T06:50:38.701Z,85.60
2022-10-23T06:51:14.633Z,85.53
2022-10-23T06:51:46.724Z,85.48
2022-10-23T06:52:41.652Z,85.40
2022-10-23T06:53:12.433Z,85.55
2022-10-23T06:53:46.494Z,85.95
2022-10-23T06:54:19.575Z,86.28
2022-10-23T06:54:53.318Z,86.78
2022-10-23T06:55:25.426Z,87.27
2022-10-23T06:56:01.600Z,87.38
2022-10-23T06:56:35.183Z,87.23
2022-10-23T06:57:09.516Z,87.28
2022-10-23T06:57:44.377Z,87.73
2022-10-23T06:58:16.454Z,88.46
2022-10-23T06:58:51.973Z,89.03
2022-10-23T06:59:25.028Z,89.81
2022-10-23T06:59:57.173Z,90.52
2022-10-23T07:00:29.742Z,90.70
2022-10-23T07:01:07.318Z,91.32
2022-10-23T07:01:39.521Z,91.71
2022-10-23T07:02:11.906Z,92.17
2022-10-23T07:02:44.330Z,92.29
2022-10-23T07:03:16.299Z,92.28
2022-10-23T07:03:48.943Z,92.10
2022-10-23T07:04:22.601Z,92.12
2022-10-23T07:04:54.717Z,91.71
2022-10-23T07:05:26.716Z,91.27
2022-10-23T07:06:03.453Z,90.82
2022-10-23T07:06:35.303Z,90.42
2022-10-23T07:07:07.608Z,90.30
2022-10-23T07:07:39.798Z,90.47
2022-10-23T07:08:12.019Z,90.60
2022-10-23T07:08:44.800Z,90.60
2022-10-23T07:09:18.442Z,90.46
2022-10-23T07:09:53.474Z,90.62
2022-10-23T07:10:25.545Z,90.35
2022-10-23T07:10:58.153Z,90.34
2022-10-23T07:11:30.070Z,90.36
2022-10-23T07:12:02.090Z,89.96
2022-10-23T07:12:36.698Z,90.29
2022-10-23T07:13:10.672Z,89.98
2022-10-23T07:13:44.486Z,89.95
2022-10-23T07:14:16.523Z,89.64
2022-10-23T07:14:48.392Z,89.25
2022-10-23T07:15:20.820Z,88.56
2022-10-23T07:15:53.771Z,88.38
2022-10-23T07:16:27.411Z,88.44
2022-10-23T07:17:00.998Z,88.45
2022-10-23T07:17:33.121Z,88.50
2022-10-23T07:18:06.403Z,88.28
2022-10-23T07:18:41.286Z,88.00
2022-10-23T07:19:15.695Z,88.56
2022-10-23T07:19:49.988Z,88.48
2022-10-23T07:20:22.474Z,88.78
2022-10-23T07:20:59.964Z,89.38
2022-10-23T07:21:35.054Z,89.41
2022-10-23T07:22:10.792Z,89.28
2022-10-23T07:22:51.996Z,89.32
2022-10-23T07:23:28.009Z,89.93
2022-10-23T07:24:01.187Z,89.58
2022-10-23T07:24:37.130Z,89.46
2022-10-23T07:25:09.859Z,89.53
2022-10-23T07:25:42.733Z,89.16
2022-10-23T07:26:15.989Z,89.01
2022-10-23T07:26:47.995Z,88.94
2022-10-23T07:27:20.052Z,88.81
2022-10-23T07:27:55.818Z,88.66
2022-10-23T07:28:28.192Z,88.98
2022-10-23T07:29:00.044Z,89.28
2022-10-23T07:29:33.367Z,88.94
2022-10-23T07:30:05.644Z,88.84
2022-10-23T07:30:38.371Z,88.81
2022-10-23T07:31:11.741Z,89.24
2022-10-23T07:31:47.563Z,88.84
2022-10-23T07:32:21.071Z,88.89
2022-10-23T07:33:00.329Z,89.38
2022-10-23T07:33:34.968Z,89.24
2022-10-23T07:34:07.592Z,89.41
2022-10-23T07:34:39.598Z,89.54
2022-10-23T07:35:50.920Z,90.67
2022-10-23T07:36:23.685Z,89.95
2022-10-23T07:36:57.023Z,89.85
2022-10-23T07:37:30.493Z,90.23